createdAt,value
2018-02-06T00:01:16.748Z,-1.8
2018-02-06T00:05:16.951Z,-1.9
2018-02-06T00:08:17.129Z,-2
2018-02-06T00:09:17.195Z,-1.9
2018-02-06T00:10:17.289Z,-2
2018-02-06T00:13:17.448Z,-2.1
2018-02-06T00:15:17.595Z,-2
2018-02-06T00:16:17.627Z,-2.1
2018-02-06T00:19:17.803Z,-2.3
2018-02-06T00:33:18.727Z,-2.4
2018-02-06T00:41:19.191Z,-2.5
2018-02-06T00:49:19.647Z,-2.6
2018-02-06T00:50:19.723Z,-2.5
2018-02-06T00:51:19.771Z,-2.6
2018-02-06T00:58:20.308Z,-2.8
2018-02-06T01:04:20.607Z,-2.9
2018-02-06T01:09:20.923Z,-3
2018-02-06T01:15:21.295Z,-2.9
2018-02-06T01:16:21.381Z,-3
2018-02-06T01:17:21.473Z,-2.9
2018-02-06T01:28:22.162Z,-2.8
2018-02-06T01:29:22.215Z,-2.9
2018-02-06T01:31:22.289Z,-2.8
2018-02-06T01:32:22.379Z,-2.9
2018-02-06T02:04:24.357Z,-3
2018-02-06T02:10:24.725Z,-3.1
2018-02-06T02:14:25.032Z,-3.3
2018-02-06T02:36:32.831Z,-3.4
2018-02-06T04:52:55.402Z,-4.3
2018-02-06T04:53:55.517Z,-4.1
2018-02-06T04:54:55.520Z,-4.3
2018-02-06T05:09:56.513Z,-4.4
2018-02-06T05:23:57.244Z,-4.3
2018-02-06T05:35:58.055Z,-4.1
2018-02-06T05:36:58.055Z,-4.3
2018-02-06T05:38:58.202Z,-4.1
2018-02-06T06:00:59.564Z,-4.3
2018-02-06T06:15:00.693Z,-4.4
2018-02-06T06:16:00.768Z,-4.3
2018-02-06T06:25:00.990Z,-4.4
2018-02-06T06:26:01.100Z,-4.3
2018-02-06T06:34:01.579Z,-4.1
2018-02-06T06:47:03.404Z,-4
2018-02-06T06:54:03.805Z,-3.9
2018-02-06T06:55:04.012Z,-4
2018-02-06T06:56:03.954Z,-3.9
2018-02-06T07:02:04.326Z,-3.8
2018-02-06T07:09:04.709Z,-3.6
2018-02-06T07:15:05.090Z,-3.5
2018-02-06T07:21:05.498Z,-3.4
2018-02-06T07:26:05.745Z,-3.3
2018-02-06T07:31:06.053Z,-3.1
2018-02-06T07:33:06.185Z,-3
2018-02-06T07:36:06.415Z,-2.9
2018-02-06T07:37:06.500Z,-2.5
2018-02-06T07:38:06.543Z,-1.4
2018-02-06T07:39:06.604Z,-2.1
2018-02-06T07:40:06.642Z,-1.1
2018-02-06T07:41:06.689Z,-0.3
2018-02-06T07:42:06.773Z,0.5
2018-02-06T07:43:06.812Z,1.3
2018-02-06T07:44:06.889Z,1.9
2018-02-06T07:45:06.911Z,2.5
2018-02-06T07:46:07.004Z,3.1
2018-02-06T07:47:07.099Z,3.6
2018-02-06T07:48:07.129Z,4
2018-02-06T07:49:07.211Z,4.5
2018-02-06T07:50:07.271Z,5
2018-02-06T07:51:07.367Z,5.4
2018-02-06T07:52:07.397Z,5.7
2018-02-06T07:53:07.460Z,6.1
2018-02-06T07:54:07.513Z,6.5
2018-02-06T07:55:07.555Z,6.7
2018-02-06T07:56:07.611Z,7.1
2018-02-06T07:57:07.707Z,7.4
2018-02-06T07:58:07.733Z,7.6
2018-02-06T07:59:07.793Z,7.9
2018-02-06T08:00:07.837Z,8.1
2018-02-06T08:01:07.880Z,8.5
2018-02-06T08:02:07.951Z,8.8
2018-02-06T08:03:08.053Z,9
2018-02-06T08:04:08.071Z,9.3
2018-02-06T08:05:08.144Z,9.4
2018-02-06T08:06:08.257Z,9.6
2018-02-06T08:07:08.303Z,9.8
2018-02-06T08:08:08.348Z,10
2018-02-06T08:09:08.432Z,10.1
2018-02-06T08:10:08.447Z,10.3
2018-02-06T08:11:08.548Z,10.4
2018-02-06T08:12:08.615Z,10.5
2018-02-06T08:13:08.630Z,10.8
2018-02-06T08:14:08.704Z,10.9
2018-02-06T08:15:08.750Z,11
2018-02-06T08:16:08.813Z,11.1
2018-02-06T08:17:08.880Z,11.3
2018-02-06T08:18:08.939Z,11.4
2018-02-06T08:19:08.987Z,11.5
2018-02-06T08:20:09.064Z,11.8
2018-02-06T08:21:09.173Z,11.9
2018-02-06T08:22:09.219Z,12
2018-02-06T08:23:09.237Z,12.1
2018-02-06T08:24:09.353Z,12.4
2018-02-06T08:25:09.440Z,12.5
2018-02-06T08:26:09.514Z,12.6
2018-02-06T08:27:09.529Z,12.9
2018-02-06T08:28:09.616Z,13
2018-02-06T08:29:09.677Z,13.1
2018-02-06T08:30:09.718Z,13.4
2018-02-06T08:31:09.783Z,13.6
2018-02-06T08:32:09.827Z,13.8
2018-02-06T08:33:09.916Z,13.9
2018-02-06T08:34:09.960Z,14.1
2018-02-06T08:35:10.020Z,14.3
2018-02-06T08:37:10.146Z,14.5
2018-02-06T08:39:10.250Z,14.6
2018-02-06T08:40:10.339Z,14.7
2018-02-06T08:42:10.421Z,14.9
2018-02-06T08:43:10.465Z,15
2018-02-06T08:44:10.549Z,15.1
2018-02-06T08:45:10.620Z,15.3
2018-02-06T08:46:10.727Z,15.4
2018-02-06T08:47:10.725Z,15.5
2018-02-06T08:48:10.778Z,15.6
2018-02-06T08:49:10.842Z,15.8
2018-02-06T08:51:10.958Z,15.9
2018-02-06T08:52:11.019Z,16.1
2018-02-06T08:53:11.079Z,16.3
2018-02-06T08:54:11.143Z,16.4
2018-02-06T08:55:11.257Z,16.5
2018-02-06T08:57:11.380Z,16.6
2018-02-06T08:58:11.413Z,16.8
2018-02-06T09:00:11.553Z,16.9
2018-02-06T09:01:11.608Z,17
2018-02-06T09:02:11.663Z,17.1
2018-02-06T09:03:11.692Z,17.4
2018-02-06T09:04:11.771Z,17.5
2018-02-06T09:05:11.829Z,17.6
2018-02-06T09:06:11.877Z,17.9
2018-02-06T09:07:11.986Z,18
2018-02-06T09:08:12.047Z,18.3
2018-02-06T09:09:12.072Z,18.4
2018-02-06T09:10:12.226Z,18.5
2018-02-06T09:11:12.229Z,18.6
2018-02-06T09:12:12.312Z,18.9
2018-02-06T09:13:12.309Z,19
2018-02-06T09:15:12.508Z,18.8
2018-02-06T09:16:12.527Z,18.5
2018-02-06T09:17:12.607Z,17.9
2018-02-06T09:18:12.686Z,18.1
2018-02-06T09:19:12.717Z,18.4
2018-02-06T09:20:12.829Z,18.6
2018-02-06T09:21:12.854Z,18.8
2018-02-06T09:22:12.933Z,19
2018-02-06T09:23:12.993Z,19.3
2018-02-06T09:24:13.030Z,19.4
2018-02-06T09:25:13.100Z,19.6
2018-02-06T09:27:13.220Z,19.8
2018-02-06T09:28:13.245Z,20
2018-02-06T09:29:13.349Z,20.3
2018-02-06T09:30:13.389Z,20.4
2018-02-06T09:31:13.464Z,20.6
2018-02-06T09:32:13.503Z,20.8
2018-02-06T09:33:14.569Z,20.9
2018-02-06T09:34:13.622Z,21
2018-02-06T09:36:13.720Z,21.1
2018-02-06T09:37:13.805Z,21.2
2018-02-06T09:38:13.869Z,21.4
2018-02-06T09:40:13.984Z,21.5
2018-02-06T09:42:14.150Z,21.6
2018-02-06T09:44:14.261Z,21.8
2018-02-06T09:46:14.389Z,21.9
2018-02-06T09:47:14.458Z,22
2018-02-06T09:49:14.553Z,22.1
2018-02-06T09:52:14.717Z,22.2
2018-02-06T09:53:14.825Z,22.4
2018-02-06T09:54:14.840Z,22.5
2018-02-06T09:56:14.967Z,22.6
2018-02-06T09:58:15.127Z,22.9
2018-02-06T09:59:15.181Z,23
2018-02-06T10:00:15.949Z,23.1
2018-02-06T10:01:15.291Z,22.9
2018-02-06T10:02:15.381Z,23
2018-02-06T10:03:15.413Z,22.8
2018-02-06T10:04:15.510Z,22.9
2018-02-06T10:09:15.784Z,23
2018-02-06T10:10:15.875Z,22.9
2018-02-06T10:12:15.992Z,22.8
2018-02-06T10:13:16.035Z,22.6
2018-02-06T10:14:16.102Z,22.1
2018-02-06T10:15:16.200Z,21.9
2018-02-06T10:16:16.227Z,22
2018-02-06T10:17:16.295Z,22.1
2018-02-06T10:20:16.477Z,22.2
2018-02-06T10:21:16.574Z,22.5
2018-02-06T10:24:16.680Z,22.6
2018-02-06T10:26:16.805Z,22.8
2018-02-06T10:27:16.860Z,22.9
2018-02-06T10:28:16.916Z,23
2018-02-06T10:29:16.979Z,23.1
2018-02-06T10:30:17.043Z,23.4
2018-02-06T10:31:17.105Z,23.6
2018-02-06T10:33:17.245Z,23.5
2018-02-06T10:34:17.330Z,23.3
2018-02-06T10:35:17.401Z,23.1
2018-02-06T10:36:17.449Z,22.9
2018-02-06T10:37:17.482Z,22.8
2018-02-06T10:39:17.625Z,22.6
2018-02-06T10:40:17.667Z,22.5
2018-02-06T10:41:17.732Z,22.2
2018-02-06T10:42:17.808Z,22
2018-02-06T10:43:17.843Z,21.8
2018-02-06T10:44:17.905Z,21.5
2018-02-06T10:45:17.973Z,20.8
2018-02-06T10:46:18.044Z,20
2018-02-06T10:47:18.102Z,19.6
2018-02-06T10:48:18.179Z,19.8
2018-02-06T10:49:18.289Z,20
2018-02-06T10:50:18.340Z,20.1
2018-02-06T10:51:18.401Z,20.5
2018-02-06T10:52:18.425Z,20.8
2018-02-06T10:53:18.531Z,21
2018-02-06T10:54:18.582Z,21.2
2018-02-06T10:55:18.631Z,21.6
2018-02-06T10:56:18.677Z,22
2018-02-06T10:57:18.745Z,22.4
2018-02-06T10:58:18.805Z,22.6
2018-02-06T10:59:18.877Z,22.9
2018-02-06T11:00:18.954Z,23.3
2018-02-06T11:01:18.986Z,23.6
2018-02-06T11:02:19.049Z,23.9
2018-02-06T11:03:19.165Z,24.1
2018-02-06T11:04:19.196Z,24.5
2018-02-06T11:05:19.229Z,24.6
2018-02-06T11:06:19.307Z,24.7
2018-02-06T11:07:19.383Z,24.9
2018-02-06T11:10:19.552Z,24.7
2018-02-06T11:13:19.709Z,24.6
2018-02-06T11:17:19.930Z,24.7
2018-02-06T11:22:20.324Z,24.6
2018-02-06T11:24:20.404Z,24.5
2018-02-06T11:26:20.515Z,24.6
2018-02-06T11:30:20.785Z,24.5
2018-02-06T11:32:20.903Z,24.4
2018-02-06T11:33:20.970Z,24.5
2018-02-06T11:34:21.010Z,24.6
2018-02-06T11:37:21.220Z,24.7
2018-02-06T11:39:21.641Z,24.9
2018-02-06T11:40:21.396Z,25
2018-02-06T11:43:21.569Z,25.1
2018-02-06T11:45:21.653Z,25.3
2018-02-06T11:50:22.015Z,25.4
2018-02-06T11:57:22.399Z,25.5
2018-02-06T12:00:22.609Z,25.3
2018-02-06T12:02:22.697Z,25.4
2018-02-06T12:04:22.820Z,25.3
2018-02-06T12:05:22.879Z,25.1
2018-02-06T12:06:22.949Z,25
2018-02-06T12:07:23.016Z,25.1
2018-02-06T12:08:23.113Z,25.3
2018-02-06T12:10:23.204Z,24.7
2018-02-06T12:11:23.261Z,23.3
2018-02-06T12:12:23.344Z,22.6
2018-02-06T12:13:23.388Z,22.2
2018-02-06T12:14:23.484Z,22.4
2018-02-06T12:15:23.557Z,22.1
2018-02-06T12:16:23.601Z,21.1
2018-02-06T12:17:23.653Z,19.9
2018-02-06T12:18:23.738Z,19.1
2018-02-06T12:19:23.748Z,19.4
2018-02-06T12:20:23.827Z,20.5
2018-02-06T12:21:23.866Z,21.6
2018-02-06T12:22:23.929Z,22.4
2018-02-06T12:23:23.981Z,23
2018-02-06T12:24:24.086Z,23.4
2018-02-06T12:25:24.102Z,23
2018-02-06T12:26:24.237Z,21.9
2018-02-06T12:27:24.241Z,20.6
2018-02-06T12:28:24.326Z,19.3
2018-02-06T12:29:24.416Z,18.3
2018-02-06T12:30:24.466Z,17.4
2018-02-06T12:31:24.490Z,17
2018-02-06T12:33:24.595Z,17.2
2018-02-06T12:34:24.705Z,16.5
2018-02-06T12:35:24.763Z,15.8
2018-02-06T12:36:24.825Z,15.3
2018-02-06T12:37:24.858Z,14.7
2018-02-06T12:38:24.972Z,14.3
2018-02-06T12:39:25.031Z,16.5
2018-02-06T12:40:25.085Z,18.3
2018-02-06T12:41:25.148Z,19.4
2018-02-06T12:42:25.219Z,20.1
2018-02-06T12:43:25.217Z,20.3
2018-02-06T12:44:25.318Z,20
2018-02-06T12:45:25.379Z,20.4
2018-02-06T12:46:26.117Z,20.8
2018-02-06T12:47:25.465Z,21.1
2018-02-06T12:48:25.534Z,21.8
2018-02-06T12:49:25.590Z,22.2
2018-02-06T12:50:25.646Z,22.6
2018-02-06T12:51:25.716Z,22.9
2018-02-06T12:52:25.795Z,23
2018-02-06T12:53:26.016Z,23.1
2018-02-06T12:54:25.945Z,23.3
2018-02-06T12:55:25.945Z,23.5
2018-02-06T12:56:26.023Z,23.6
2018-02-06T13:00:26.259Z,23.7
2018-02-06T13:01:26.351Z,23.6
2018-02-06T13:04:26.538Z,23.7
2018-02-06T13:09:26.822Z,23.9
2018-02-06T13:11:26.940Z,24
2018-02-06T13:14:27.120Z,24.1
2018-02-06T13:17:27.358Z,24.3
2018-02-06T13:22:27.650Z,24.1
2018-02-06T13:23:27.718Z,24
2018-02-06T13:24:27.767Z,23.9
2018-02-06T13:25:27.797Z,23.7
2018-02-06T13:27:27.990Z,23.6
2018-02-06T13:28:27.976Z,23.5
2018-02-06T13:30:28.144Z,23.4
2018-02-06T13:32:28.279Z,23.3
2018-02-06T13:33:28.292Z,23.4
2018-02-06T13:34:28.406Z,22.8
2018-02-06T13:35:28.417Z,21.5
2018-02-06T13:36:28.487Z,20.5
2018-02-06T13:37:28.577Z,19.5
2018-02-06T13:38:28.592Z,18.6
2018-02-06T13:39:28.673Z,18.5
2018-02-06T13:40:28.734Z,18.9
2018-02-06T13:41:28.785Z,19.3
2018-02-06T13:42:28.843Z,19.4
2018-02-06T13:43:28.919Z,19.1
2018-02-06T13:45:29.046Z,19.4
2018-02-06T13:46:29.126Z,19.9
2018-02-06T13:47:29.161Z,20.3
2018-02-06T13:48:29.271Z,20.6
2018-02-06T13:49:29.317Z,21
2018-02-06T13:50:29.340Z,21.1
2018-02-06T13:51:29.455Z,21.4
2018-02-06T13:52:29.506Z,21.6
2018-02-06T13:53:29.563Z,21.9
2018-02-06T13:54:29.595Z,22.1
2018-02-06T13:55:29.746Z,22.4
2018-02-06T13:56:29.712Z,22.6
2018-02-06T13:57:29.825Z,23
2018-02-06T13:58:29.849Z,23.3
2018-02-06T13:59:29.936Z,23.4
2018-02-06T14:00:29.955Z,23.6
2018-02-06T14:01:30.013Z,23.9
2018-02-06T14:02:30.080Z,24
2018-02-06T14:03:30.202Z,24.1
2018-02-06T14:04:30.210Z,23.9
2018-02-06T14:05:30.265Z,23.6
2018-02-06T14:06:30.359Z,23.7
2018-02-06T14:07:30.392Z,23.9
2018-02-06T14:08:30.504Z,23.1
2018-02-06T14:09:30.562Z,21
2018-02-06T14:10:30.662Z,19.4
2018-02-06T14:11:30.696Z,18.3
2018-02-06T14:12:30.743Z,17.6
2018-02-06T14:13:30.743Z,16.6
2018-02-06T14:14:30.834Z,15.9
2018-02-06T14:15:30.869Z,15
2018-02-06T14:16:30.955Z,14.3
2018-02-06T14:17:31.048Z,13.5
2018-02-06T14:18:31.101Z,12.9
2018-02-06T14:19:31.113Z,12.4
2018-02-06T14:20:31.180Z,12.1
2018-02-06T14:21:31.266Z,13
2018-02-06T14:22:31.345Z,13.9
2018-02-06T14:23:31.397Z,15
2018-02-06T14:24:31.461Z,15.6
2018-02-06T14:25:31.541Z,16.3
2018-02-06T14:26:31.559Z,16.4
2018-02-06T14:27:31.674Z,16.5
2018-02-06T14:28:31.655Z,15.8
2018-02-06T14:29:31.734Z,15.1
2018-02-06T14:30:31.784Z,13.8
2018-02-06T14:31:31.877Z,12.8
2018-02-06T14:32:31.923Z,11.9
2018-02-06T14:33:31.977Z,11.4
2018-02-06T14:34:32.034Z,10.9
2018-02-06T14:35:32.140Z,10.1
2018-02-06T14:36:32.189Z,9.4
2018-02-06T14:37:32.481Z,8.6
2018-02-06T14:38:32.330Z,8
2018-02-06T14:39:32.403Z,7.5
2018-02-06T14:40:32.439Z,7
2018-02-06T14:41:32.518Z,6.5
2018-02-06T14:42:32.581Z,6
2018-02-06T14:43:33.030Z,5.6
2018-02-06T14:44:32.666Z,5.2
2018-02-06T14:45:32.710Z,4.9
2018-02-06T14:46:32.758Z,4.5
2018-02-06T14:47:33.187Z,4.1
2018-02-06T14:48:34.151Z,3.9
2018-02-06T14:49:35.110Z,3.5
2018-02-06T14:50:36.100Z,3.2
2018-02-06T14:51:37.176Z,3
2018-02-06T14:52:38.073Z,2.9
2018-02-06T14:53:39.074Z,2.6
2018-02-06T14:54:40.127Z,2.5
2018-02-06T14:55:41.119Z,2.2
2018-02-06T14:56:41.071Z,2.1
2018-02-06T14:57:41.106Z,2
2018-02-06T14:58:41.175Z,1.9
2018-02-06T14:59:41.218Z,1.8
2018-02-06T15:00:41.270Z,1.6
2018-02-06T15:01:41.300Z,1.5
2018-02-06T15:02:41.380Z,1.4
2018-02-06T15:03:41.503Z,1.3
2018-02-06T15:05:41.616Z,1.1
2018-02-06T15:06:41.626Z,1
2018-02-06T15:08:41.738Z,0.9
2018-02-06T15:12:43.901Z,0.8
2018-02-06T15:17:47.011Z,0.6
2018-02-06T15:21:47.310Z,0.5
2018-02-06T15:26:47.589Z,0.4
2018-02-06T15:31:47.861Z,0.3
2018-02-06T15:34:48.075Z,0.1
2018-02-06T15:39:48.381Z,0
2018-02-06T15:42:48.577Z,-0.1
2018-02-06T15:46:48.839Z,-0.3
2018-02-06T15:51:49.138Z,-0.4
2018-02-06T15:56:49.395Z,-0.5
2018-02-06T16:00:49.639Z,-0.6
2018-02-06T16:05:49.995Z,-0.8
2018-02-06T16:10:50.355Z,-0.9
2018-02-06T16:11:50.342Z,-0.8
2018-02-06T16:12:50.429Z,-0.9
2018-02-06T16:13:50.501Z,-0.8
2018-02-06T16:14:50.518Z,-0.9
2018-02-06T16:25:51.236Z,-1
2018-02-06T16:26:51.231Z,-0.9
2018-02-06T16:27:51.449Z,-1
2018-02-06T16:40:52.207Z,-1.1
2018-02-06T16:50:52.728Z,-1.3
2018-02-06T17:19:56.499Z,-1.4
2018-02-06T17:32:57.247Z,-1.5
2018-02-06T17:39:58.102Z,-1.6
2018-02-06T17:50:58.733Z,-1.8
2018-02-06T17:51:58.817Z,-1.6
2018-02-06T17:52:58.870Z,-1.8
2018-02-06T17:54:59.030Z,-1.6
2018-02-06T17:55:59.047Z,-1.8
2018-02-06T18:11:00.104Z,-1.9
2018-02-06T18:32:02.002Z,-1.8
2018-02-06T18:43:02.702Z,-1.6
2018-02-06T18:44:02.702Z,-1.8
2018-02-06T18:48:02.950Z,-1.6
2018-02-06T18:49:03.007Z,-1.8
2018-02-06T18:56:03.546Z,-1.6
2018-02-06T19:52:06.921Z,-1.5
2018-02-06T19:55:07.104Z,-1.6
2018-02-06T19:56:07.261Z,-1.5
2018-02-06T19:58:07.318Z,-1.6
2018-02-06T20:02:07.496Z,-1.5
2018-02-06T20:03:07.576Z,-1.6
2018-02-06T20:17:08.449Z,-1.5
2018-02-06T20:18:08.520Z,-1.6
2018-02-06T20:20:08.638Z,-1.5
2018-02-06T20:21:08.652Z,-1.6
2018-02-06T20:23:08.811Z,-1.5
2018-02-06T20:28:09.082Z,-1.6
2018-02-06T20:33:09.406Z,-1.5
2018-02-06T20:34:09.454Z,-1.6
2018-02-06T20:36:09.632Z,-1.5
2018-02-06T20:45:10.170Z,-1.6
2018-02-06T20:46:10.237Z,-1.5
2018-02-06T20:49:10.391Z,-1.6
2018-02-06T20:50:10.466Z,-1.5
2018-02-06T20:53:10.672Z,-1.6
2018-02-06T20:54:10.668Z,-1.5
2018-02-06T22:06:15.161Z,-1.4
2018-02-06T22:07:15.162Z,-1.5
2018-02-06T22:09:15.308Z,-1.4
2018-02-06T22:23:16.228Z,-1.5
2018-02-06T22:24:16.198Z,-1.4
2018-02-06T22:27:16.417Z,-1.5
2018-02-06T22:54:18.041Z,-1.4
2018-02-06T23:08:18.934Z,-1.3
2018-02-06T23:09:19.029Z,-1.4
2018-02-06T23:10:19.084Z,-1.3
2018-02-06T23:11:19.121Z,-1.4
2018-02-06T23:13:19.265Z,-1.3
2018-02-06T23:15:19.402Z,-1.4
2018-02-06T23:16:19.425Z,-1.3
2018-02-06T23:23:19.877Z,-1.1
2018-02-06T23:26:20.008Z,-1.3
2018-02-06T23:27:20.075Z,-1.1
2018-02-06T23:38:20.760Z,-1
2018-02-06T23:39:20.813Z,-1.1
2018-02-06T23:40:20.849Z,-1
2018-02-06T23:42:21.036Z,-1.1
2018-02-06T23:45:21.269Z,-1
2018-02-06T23:46:21.490Z,-1.1
2018-02-06T23:50:21.491Z,-1
2018-02-06T23:53:21.726Z,-1.1
2018-02-06T23:54:21.801Z,-1
2018-02-06T23:57:21.930Z,-1.1
2018-02-06T23:58:22.097Z,-1
